Ormsby, MN (56162)

07:36 AM CDT del 29 Agosto 2015 (GMT -0500)
NuWay Coop - Ormsby | | Change Station
CLOSE
Current Station
Stazione meteo personale
Location: Ormsby, MN
Altitudine: 1187 ft
Stazioni meteo nelle vicinanze
Avvisi attivi: Special Statement

Alt. 1187 ft 43.85 °N, 94.70 °W | Updated 14 minutes ago

Nebbia
Nebbia
56.8 °F
Sembra 56.8 °F
N
1.0
Vento Variabile Vento da ONO
Gusts 4.0 mph

Oggi
Massima -- | Minima -- °F
--% Possibilità di precip.
Ieri
Massima -- | Minima -- °F
Precip. -- in
6:38 AM 8:00 PM
Luna piena, 100% visible
Pressione 30.06 in
Visibilità 0.2 miglia
Nuvole Coperto 100 ft
Punto di rugiada 56 °F
Umidità 97%
Piovosità 0.00 in
Spessore del manto nevoso Non disponibile.
Raggi UV 0 fuori da 12
Polline 8.30 fuori da 12
Qualità dell'aria Non disponibile.
Flu Activity Non disponibile.
METAR KJYG 291215Z AUTO 00000KT 1/4SM FG OVC001 14/14 A3006 RMK AO2
Pressione 30.06 in
Visibilità 0.2 miglia
Nuvole Coperto 100 ft
Punto di rugiada 56 °F
Umidità 97%
Piovosità 0.00 in
Spessore del manto nevoso Non disponibile.
Raggi UV 0 fuori da 12
Polline 8.30 fuori da 12
Qualità dell'aria Non disponibile.
Flu Activity Non disponibile.
METAR KJYG 291215Z AUTO 00000KT 1/4SM FG OVC001 14/14 A3006 RMK AO2

10-Day Weather Forecast

×

Almanac

Astronomia

Aug. 29, 2015 Alba Tramonto
Ora attuale
Crepuscolo civile
Crepuscolo nautico
Crepuscolo astronomico
Luna
Estensione della luce visibile
Lunghezza del giorno
Tomorrow will be .
, % of the Moon is Illuminated

Gli estremi di oggi

State Highs State Lows

Community

WunderPhotos

Upload Photos

1,850,676 foto caricate!

WunderBlogs® & News

Nearby

Qualità dell'aria

  Qualità dell'aria Indice AQ Inquinante
Not available.

Profondità neve

Stazione Profondità Altitudine

Attività sismica

Città  Distanza Mag. Data & Ora
Minimo Magnitudo Mostrato è 2.5.

Temperature delle acque costiere

Località Temperatura

Stations

Stazioni meteo nelle vicinanze

Ubicazione della stazione Temp. Raffreddamento del vento Punto di rugiada Umidità Vento Precip. Alt. Aggiornato Tipo
                   
Special Statement
Statement as of 05:29 AM CDT del 29 Agosto 2015

... Pockets of dense fog across southern Minnesota...

A few areas of dense fog will continue through early morning
across southern Minnesota. This includes Interstate 90.


Jrb


529 am CDT Sat Aug 29 2015

... Pockets of dense fog across southern Minnesota...

A few areas of dense fog will continue through early morning
across southern Minnesota. This includes Interstate 90.


Jrb